Time;durP1;ratioP1;P1;durP2;ratioP2;P2;SDS_P1;SDS_P2;PMS_P1;PMS_P2;Temp;Humidity;BMP_temperature;BMP_pressure;BME280_temperature;BME280_humidity;BME280_pressure;Samples;Min_cycle;Max_cycle;Signal;HPM_P1;HPM_P2
2020/12/02 00:01:53;;;;;;;1.63;0.90;;;15.90;62.20;;;;;;4957060;29;20038;-65
2020/12/02 00:04:20;;;;;;;1.65;0.90;;;15.80;62.00;;;;;;4956953;29;20039;-65
2020/12/02 00:06:48;;;;;;;2.00;0.85;;;15.80;62.00;;;;;;4956985;29;20019;-65
2020/12/02 00:09:17;;;;;;;3.35;1.27;;;15.80;62.10;;;;;;4956968;29;20058;-65
2020/12/02 00:11:44;;;;;;;1.33;0.93;;;15.80;62.10;;;;;;4956683;29;20118;-64
2020/12/02 00:14:17;;;;;;;1.05;0.95;;;15.80;62.10;;;;;;4956846;29;20023;-65
2020/12/02 00:16:43;;;;;;;1.08;0.52;;;15.80;62.20;;;;;;4956634;29;20473;-65
2020/12/02 00:19:09;;;;;;;1.52;1.02;;;15.70;62.10;;;;;;4956779;29;20058;-65
2020/12/02 00:21:34;;;;;;;1.58;1.00;;;15.80;62.20;;;;;;4939457;29;20035;-65
2020/12/02 00:24:00;;;;;;;3.35;0.90;;;15.70;62.10;;;;;;4956577;29;20039;-65
2020/12/02 00:26:27;;;;;;;2.42;1.17;;;15.70;62.10;;;;;;4956584;29;20050;-65
2020/12/02 00:28:53;;;;;;;1.40;0.80;;;15.70;62.20;;;;;;4956239;29;20496;-64
2020/12/02 00:31:20;;;;;;;1.52;0.85;;;15.70;62.20;;;;;;4956533;29;20031;-65
2020/12/02 00:33:46;;;;;;;1.15;0.93;;;15.70;62.30;;;;;;4956264;29;20039;-65
2020/12/02 00:36:12;;;;;;;1.45;1.10;;;15.70;62.30;;;;;;4956171;29;20035;-65
2020/12/02 00:38:38;;;;;;;1.48;0.90;;;15.70;62.30;;;;;;4956309;29;20027;-65
2020/12/02 00:41:04;;;;;;;2.08;0.90;;;15.70;62.30;;;;;;4956363;29;20102;-65
2020/12/02 00:43:31;;;;;;;1.25;0.98;;;15.70;62.30;;;;;;4956519;29;20126;-65
2020/12/02 00:45:59;;;;;;;1.77;0.77;;;15.70;62.40;;;;;;4955894;29;20027;-65
2020/12/02 00:48:27;;;;;;;1.80;1.10;;;15.60;62.30;;;;;;4955907;28;20247;-65
2020/12/02 00:50:53;;;;;;;1.77;0.90;;;15.70;62.30;;;;;;4955782;28;20553;-65
2020/12/02 00:53:29;;;;;;;2.30;1.08;;;15.70;62.40;;;;;;4956246;28;20400;-65
2020/12/02 00:55:55;;;;;;;1.17;0.88;;;15.70;62.30;;;;;;4955772;29;20023;-65
2020/12/02 00:58:34;;;;;;;2.40;1.23;;;15.60;62.40;;;;;;4956026;29;20034;-65
2020/12/02 01:01:04;;;;;;;1.38;0.80;;;15.60;62.40;;;;;;4955927;29;20066;-64
2020/12/02 01:03:30;;;;;;;2.00;1.08;;;15.60;62.40;;;;;;4955540;28;20039;-65
2020/12/02 01:05:57;;;;;;;1.15;0.80;;;15.60;62.40;;;;;;4955650;29;20086;-65
2020/12/02 01:08:31;;;;;;;1.45;1.00;;;15.60;62.40;;;;;;4955071;28;20027;-65
2020/12/02 01:11:08;;;;;;;1.40;0.95;;;15.60;62.40;;;;;;4955905;29;20034;-65
2020/12/02 01:13:35;;;;;;;1.98;0.93;;;15.60;62.40;;;;;;4955783;29;20015;-65
2020/12/02 01:16:04;;;;;;;1.80;1.05;;;15.60;62.40;;;;;;4955454;29;20371;-65
2020/12/02 01:18:29;;;;;;;0.82;0.70;;;15.60;62.40;;;;;;4955388;29;20027;-65
2020/12/02 01:21:26;;;;;;;1.00;0.73;;;15.50;62.30;;;;;;4955616;29;20027;-65
2020/12/02 01:23:56;;;;;;;1.25;0.98;;;15.50;62.30;;;;;;4955250;29;20039;-65
2020/12/02 01:26:28;;;;;;;1.33;1.00;;;15.50;62.40;;;;;;4955540;29;20082;-65
2020/12/02 01:28:55;;;;;;;1.25;1.08;;;15.50;62.40;;;;;;4955239;29;20027;-65
2020/12/02 01:31:24;;;;;;;1.10;1.00;;;15.50;62.40;;;;;;4955445;29;20038;-65
2020/12/02 01:33:50;;;;;;;1.88;0.90;;;15.50;62.40;;;;;;4955367;29;20023;-65
2020/12/02 01:36:18;;;;;;;1.05;0.95;;;15.50;62.50;;;;;;4955333;29;20058;-65
2020/12/02 01:38:44;;;;;;;1.80;1.10;;;15.30;62.40;;;;;;4954991;29;20026;-65
2020/12/02 01:41:11;;;;;;;1.00;0.88;;;15.50;62.40;;;;;;4955575;29;20032;-65
2020/12/02 01:43:37;;;;;;;2.42;0.93;;;15.50;62.50;;;;;;4955104;29;20363;-65
2020/12/02 01:46:34;;;;;;;1.00;0.77;;;15.30;62.40;;;;;;4955246;29;20023;-64
2020/12/02 01:49:32;;;;;;;1.15;1.08;;;15.50;62.50;;;;;;4954402;28;20050;-65
2020/12/02 01:52:05;;;;;;;1.33;0.90;;;15.40;62.50;;;;;;4949305;28;20450;-65
2020/12/02 01:54:41;;;;;;;1.15;1.00;;;15.40;62.50;;;;;;4955268;28;20395;-65
2020/12/02 01:57:15;;;;;;;0.80;0.80;;;15.40;62.50;;;;;;4955067;29;20058;-65
2020/12/02 02:00:12;;;;;;;1.02;0.80;;;15.40;62.50;;;;;;4954809;29;20399;-65
2020/12/02 02:03:03;;;;;;;1.00;1.00;;;15.40;62.50;;;;;;4954917;29;20023;-65
2020/12/02 02:06:03;;;;;;;1.58;0.85;;;15.40;62.50;;;;;;4954909;29;20441;-65
2020/12/02 02:08:33;;;;;;;1.17;0.90;;;15.40;62.50;;;;;;4954553;28;20039;-65
2020/12/02 02:11:04;;;;;;;1.27;1.02;;;15.40;62.60;;;;;;4954881;29;20393;-65
2020/12/02 02:13:51;;;;;;;2.00;1.00;;;15.40;62.60;;;;;;4954552;29;20066;-65
2020/12/02 02:16:48;;;;;;;1.10;0.90;;;15.40;62.50;;;;;;4954802;29;20099;-65
2020/12/02 02:19:21;;;;;;;2.17;0.98;;;15.40;62.60;;;;;;4929016;29;20039;-65
2020/12/02 02:21:51;;;;;;;1.13;0.90;;;15.40;62.60;;;;;;4954530;29;20031;-65
2020/12/02 02:24:17;;;;;;;1.40;0.90;;;15.40;62.60;;;;;;4954432;29;20478;-65
2020/12/02 02:26:50;;;;;;;1.40;0.90;;;15.40;62.60;;;;;;4954291;29;20114;-65
2020/12/02 02:29:24;;;;;;;1.42;0.90;;;15.30;62.50;;;;;;4954435;29;20479;-65
2020/12/02 02:32:01;;;;;;;1.05;0.90;;;15.30;62.50;;;;;;4954444;29;20031;-65
2020/12/02 02:34:33;;;;;;;0.75;0.75;;;15.30;62.50;;;;;;4954452;29;20042;-65
2020/12/02 02:37:01;;;;;;;1.10;1.00;;;15.40;62.70;;;;;;4954575;29;20027;-65
2020/12/02 02:39:27;;;;;;;0.93;0.93;;;15.30;62.60;;;;;;4954252;29;20481;-65
2020/12/02 02:42:00;;;;;;;1.05;0.70;;;15.40;62.80;;;;;;4954190;29;20030;-65
2020/12/02 02:44:26;;;;;;;1.10;0.90;;;15.40;62.70;;;;;;4954235;29;20148;-65
2020/12/02 02:46:53;;;;;;;1.20;1.10;;;15.50;62.70;;;;;;4954258;29;20032;-65
2020/12/02 02:49:20;;;;;;;1.30;0.98;;;15.50;62.70;;;;;;4954269;29;20208;-65
2020/12/02 02:51:46;;;;;;;2.90;0.70;;;15.60;62.70;;;;;;4954372;29;20035;-65
2020/12/02 02:54:12;;;;;;;1.20;0.70;;;15.70;63.20;;;;;;4954430;28;20109;-65
2020/12/02 02:56:38;;;;;;;1.52;0.80;;;15.70;62.50;;;;;;4954140;29;20035;-65
2020/12/02 02:59:04;;;;;;;1.33;0.80;;;15.70;62.50;;;;;;4954413;29;20027;-65
2020/12/02 03:01:31;;;;;;;1.35;0.80;;;15.90;62.60;;;;;;4954620;29;20023;-65
2020/12/02 03:03:57;;;;;;;1.60;0.73;;;15.80;62.50;;;;;;4953920;29;20042;-65
2020/12/02 03:06:22;;;;;;;1.65;0.70;;;15.30;62.40;;;;;;4953904;29;20027;-65
2020/12/02 03:08:49;;;;;;;1.42;1.02;;;15.70;62.70;;;;;;4954118;29;20039;-67
2020/12/02 03:11:16;;;;;;;0.95;0.93;;;15.70;62.80;;;;;;4954378;29;20024;-67
2020/12/02 03:13:48;;;;;;;1.63;0.98;;;15.70;62.90;;;;;;4954261;29;20038;-67
2020/12/02 03:16:34;;;;;;;1.58;1.10;;;15.70;62.70;;;;;;4954204;29;20027;-67
2020/12/02 03:19:07;;;;;;;1.00;0.82;;;15.70;62.70;;;;;;4954216;29;20054;-67
2020/12/02 03:21:33;;;;;;;1.25;0.80;;;15.70;62.60;;;;;;4954009;29;20106;-67
2020/12/02 03:23:58;;;;;;;1.23;0.93;;;15.60;62.60;;;;;;4954149;29;20167;-67
2020/12/02 03:26:24;;;;;;;1.02;0.85;;;15.60;62.50;;;;;;4954143;29;20038;-67
2020/12/02 03:28:50;;;;;;;1.67;1.17;;;15.60;62.40;;;;;;4954480;29;20110;-67
2020/12/02 03:31:19;;;;;;;2.25;1.10;;;15.60;62.40;;;;;;4955418;28;20027;-67
2020/12/02 03:33:45;;;;;;;0.80;0.75;;;15.60;62.40;;;;;;4957669;29;20086;-67
2020/12/02 03:36:13;;;;;;;1.98;1.10;;;15.60;62.30;;;;;;4957574;29;20023;-67
2020/12/02 03:38:39;;;;;;;1.20;1.02;;;15.60;62.20;;;;;;4957508;29;20042;-67
2020/12/02 03:41:05;;;;;;;0.90;0.73;;;15.70;62.30;;;;;;4957294;29;20027;-67
2020/12/02 03:43:31;;;;;;;0.90;0.85;;;15.60;62.30;;;;;;4957018;29;20071;-67
2020/12/02 03:45:58;;;;;;;1.40;0.90;;;15.60;62.20;;;;;;4957398;29;20051;-67
2020/12/02 03:48:24;;;;;;;1.38;0.82;;;15.60;62.20;;;;;;4957360;29;20024;-67
2020/12/02 03:50:49;;;;;;;0.93;0.80;;;15.60;62.30;;;;;;4957255;29;20426;-67
2020/12/02 03:53:16;;;;;;;1.27;1.08;;;15.60;62.20;;;;;;4957017;29;20051;-67
2020/12/02 03:55:42;;;;;;;0.95;0.80;;;15.60;62.30;;;;;;4957810;28;20090;-67
2020/12/02 03:58:08;;;;;;;1.20;1.10;;;15.60;62.30;;;;;;4956897;29;20058;-67
2020/12/02 04:00:34;;;;;;;1.05;0.80;;;15.60;62.30;;;;;;4957119;29;20030;-67
2020/12/02 04:03:00;;;;;;;1.00;0.85;;;15.60;62.20;;;;;;4956975;29;20029;-67
2020/12/02 04:05:25;;;;;;;1.58;0.93;;;15.60;62.30;;;;;;4956703;29;20035;-67
2020/12/02 04:07:51;;;;;;;1.08;0.93;;;15.60;62.20;;;;;;4956999;29;20027;-67
2020/12/02 04:10:17;;;;;;;1.02;0.93;;;15.60;62.20;;;;;;4956694;29;20046;-67
2020/12/02 04:12:45;;;;;;;1.17;1.08;;;15.60;62.20;;;;;;4956905;29;20162;-68
2020/12/02 04:15:12;;;;;;;1.45;0.95;;;15.60;62.20;;;;;;4956490;29;20042;-67
2020/12/02 04:17:38;;;;;;;1.00;0.73;;;15.60;62.20;;;;;;4957020;29;20027;-67
2020/12/02 04:20:04;;;;;;;1.08;0.98;;;15.60;62.20;;;;;;4956743;29;20049;-68
2020/12/02 04:22:31;;;;;;;1.33;1.20;;;15.60;62.20;;;;;;4956443;29;20517;-67
2020/12/02 04:24:56;;;;;;;1.25;1.00;;;15.60;62.20;;;;;;4956670;29;20047;-67
2020/12/02 04:27:22;;;;;;;1.90;1.00;;;15.60;62.10;;;;;;4956561;29;20015;-67
2020/12/02 04:29:48;;;;;;;1.08;0.80;;;15.60;62.10;;;;;;4956612;29;20477;-67
2020/12/02 04:32:13;;;;;;;1.63;0.90;;;15.60;62.10;;;;;;4956490;29;20490;-67
2020/12/02 04:34:39;;;;;;;1.52;1.05;;;15.60;62.10;;;;;;4956472;29;20457;-68
2020/12/02 04:37:04;;;;;;;1.90;1.05;;;15.60;62.00;;;;;;4956211;29;20078;-67
2020/12/02 04:39:30;;;;;;;1.05;0.95;;;15.60;62.00;;;;;;4956353;29;20023;-67
2020/12/02 04:41:56;;;;;;;0.80;0.80;;;15.60;62.00;;;;;;4956427;28;20028;-67
2020/12/02 04:44:22;;;;;;;1.13;1.00;;;15.60;62.60;;;;;;4956192;29;20512;-67
2020/12/02 04:46:52;;;;;;;1.80;1.40;;;15.60;62.00;;;;;;4956269;29;20023;-67
2020/12/02 04:49:22;;;;;;;2.25;1.02;;;15.50;61.90;;;;;;4956185;28;20027;-68
2020/12/02 04:51:51;;;;;;;1.05;0.95;;;15.50;62.00;;;;;;4956130;29;20023;-67
2020/12/02 04:54:17;;;;;;;1.08;0.98;;;15.50;61.90;;;;;;4956099;28;20059;-68
2020/12/02 04:56:46;;;;;;;1.80;1.13;;;15.60;62.00;;;;;;4956024;29;20015;-67
2020/12/02 04:59:12;;;;;;;1.15;1.02;;;15.50;61.90;;;;;;4955719;29;20470;-67
2020/12/02 05:01:51;;;;;;;1.00;1.00;;;15.50;61.90;;;;;;4956056;29;20028;-67
2020/12/02 05:04:21;;;;;;;1.30;1.20;;;15.50;61.90;;;;;;4955932;29;20035;-67
2020/12/02 05:07:04;;;;;;;0.98;0.90;;;15.50;61.90;;;;;;4956255;29;20012;-67
2020/12/02 05:09:30;;;;;;;1.48;1.38;;;15.50;61.80;;;;;;4955594;29;20513;-67
2020/12/02 05:12:05;;;;;;;1.70;1.30;;;15.50;61.80;;;;;;4955788;29;20035;-67
2020/12/02 05:14:39;;;;;;;1.88;1.73;;;15.60;61.80;;;;;;4955742;29;20032;-67
2020/12/02 05:17:27;;;;;;;0.95;0.95;;;15.60;61.80;;;;;;4955430;29;20023;-67
2020/12/02 05:20:07;;;;;;;2.60;1.27;;;15.60;61.70;;;;;;4955719;29;20393;-67
2020/12/02 05:22:39;;;;;;;1.20;0.95;;;15.60;61.50;;;;;;4955496;29;20036;-67
2020/12/02 05:25:14;;;;;;;1.33;1.00;;;15.70;61.60;;;;;;4955327;29;20097;-67
2020/12/02 05:27:44;;;;;;;1.08;0.82;;;15.70;61.60;;;;;;4955241;28;20027;-67
2020/12/02 05:30:28;;;;;;;1.00;1.00;;;15.80;61.50;;;;;;4955578;29;20027;-67
2020/12/02 05:33:12;;;;;;;1.17;1.00;;;15.80;61.40;;;;;;4955470;29;20062;-67
2020/12/02 05:35:50;;;;;;;0.98;0.85;;;15.90;62.00;;;;;;4955333;29;20430;-67
2020/12/02 05:38:28;;;;;;;1.45;0.90;;;15.90;61.30;;;;;;4955314;29;20019;-67
2020/12/02 05:40:57;;;;;;;1.00;0.90;;;16.00;61.30;;;;;;4955011;29;20102;-67
2020/12/02 05:43:30;;;;;;;1.70;1.20;;;16.00;61.30;;;;;;4955224;29;20106;-67
2020/12/02 05:45:58;;;;;;;1.20;1.10;;;16.00;61.30;;;;;;4955283;29;20039;-67
2020/12/02 05:48:34;;;;;;;1.35;1.00;;;16.00;61.20;;;;;;4954922;29;20024;-67
2020/12/02 05:51:01;;;;;;;1.33;1.13;;;16.00;61.20;;;;;;4955158;29;20038;-67
2020/12/02 05:53:33;;;;;;;1.23;1.13;;;16.00;61.30;;;;;;4954453;28;20031;-67
2020/12/02 05:56:00;;;;;;;1.10;1.00;;;16.00;61.30;;;;;;4953553;29;20059;-67
2020/12/02 05:58:31;;;;;;;1.38;1.27;;;16.00;61.40;;;;;;4954705;29;20023;-67
2020/12/02 06:00:57;;;;;;;1.35;1.25;;;16.00;61.50;;;;;;4954969;29;20038;-67
2020/12/02 06:03:34;;;;;;;1.30;1.20;;;16.00;61.60;;;;;;4954831;29;20037;-67
2020/12/02 06:06:01;;;;;;;1.00;0.90;;;15.90;61.50;;;;;;4954959;29;20039;-67
2020/12/02 06:08:41;;;;;;;1.17;1.08;;;16.00;61.40;;;;;;4954917;29;20030;-67
2020/12/02 06:11:16;;;;;;;0.93;0.93;;;16.00;61.30;;;;;;4954599;29;20141;-67
2020/12/02 06:13:49;;;;;;;1.17;1.08;;;16.20;61.10;;;;;;4954572;29;20046;-67
2020/12/02 06:16:37;;;;;;;2.75;1.10;;;16.30;60.80;;;;;;4954491;29;20470;-67
2020/12/02 06:19:10;;;;;;;1.02;1.02;;;16.50;60.80;;;;;;4954851;29;20024;-67
2020/12/02 06:21:49;;;;;;;1.00;0.90;;;16.60;60.70;;;;;;4954448;29;20031;-67
2020/12/02 06:24:33;;;;;;;0.90;0.90;;;16.60;60.60;;;;;;4954680;29;20159;-67
2020/12/02 06:27:00;;;;;;;1.42;1.20;;;16.70;61.20;;;;;;4954773;29;20027;-67
2020/12/02 06:29:33;;;;;;;0.70;0.70;;;16.80;60.50;;;;;;4954674;29;20495;-66
2020/12/02 06:32:15;;;;;;;2.28;0.85;;;16.80;60.50;;;;;;4954441;29;20027;-67
2020/12/02 06:34:41;;;;;;;1.00;0.90;;;16.80;60.40;;;;;;4954589;29;20031;-67
2020/12/02 06:37:21;;;;;;;1.30;1.20;;;16.90;60.40;;;;;;4954422;29;20030;-66
2020/12/02 06:39:53;;;;;;;1.23;0.90;;;16.90;60.40;;;;;;4954547;29;20055;-67
2020/12/02 06:42:39;;;;;;;1.20;1.05;;;16.90;60.30;;;;;;4954656;29;20278;-67
2020/12/02 06:45:14;;;;;;;1.23;0.95;;;16.90;60.30;;;;;;4954466;29;20082;-67
2020/12/02 06:47:57;;;;;;;0.95;0.90;;;17.00;60.30;;;;;;4954166;29;20070;-67
2020/12/02 06:50:27;;;;;;;1.10;0.70;;;17.00;60.30;;;;;;4954248;28;20034;-67
2020/12/02 06:52:56;;;;;;;1.10;1.00;;;16.90;60.30;;;;;;4954173;29;20082;-67
2020/12/02 06:55:27;;;;;;;1.20;1.00;;;16.90;60.30;;;;;;4954426;28;20081;-67
2020/12/02 06:58:01;;;;;;;1.20;1.10;;;16.90;60.30;;;;;;4954399;29;20023;-68
2020/12/02 07:00:39;;;;;;;1.38;0.90;;;16.80;60.30;;;;;;4954467;29;20033;-68
2020/12/02 07:03:24;;;;;;;1.27;1.17;;;16.80;60.40;;;;;;4954020;29;20032;-68
2020/12/02 07:05:52;;;;;;;1.25;1.10;;;16.80;60.70;;;;;;4955174;28;20548;-68
2020/12/02 07:08:25;;;;;;;1.30;1.20;;;16.80;60.70;;;;;;4958034;29;20034;-68
2020/12/02 07:10:58;;;;;;;1.45;1.35;;;16.70;60.70;;;;;;4957863;29;20033;-68
2020/12/02 07:13:27;;;;;;;1.40;1.27;;;16.70;60.60;;;;;;4958317;29;20034;-68
2020/12/02 07:15:52;;;;;;;2.35;1.45;;;16.70;60.70;;;;;;4957950;29;20083;-68
2020/12/02 07:18:21;;;;;;;1.38;1.20;;;16.70;60.50;;;;;;4957640;29;20066;-69
2020/12/02 07:20:49;;;;;;;1.45;1.17;;;16.60;60.90;;;;;;4957642;29;20492;-68
2020/12/02 07:23:20;;;;;;;2.47;1.88;;;16.60;60.80;;;;;;4957690;29;20030;-67
2020/12/02 07:25:46;;;;;;;3.35;1.70;;;16.60;60.70;;;;;;4957533;29;20034;-67
2020/12/02 07:28:21;;;;;;;3.35;1.65;;;16.60;60.60;;;;;;4957324;29;20023;-67
2020/12/02 07:30:47;;;;;;;2.30;1.90;;;16.70;60.60;;;;;;4957231;29;20107;-65
2020/12/02 07:33:19;;;;;;;2.72;1.40;;;16.80;60.50;;;;;;4957702;29;20107;-64
2020/12/02 07:35:45;;;;;;;6.15;2.03;;;16.80;60.50;;;;;;4956936;29;20027;-64
2020/12/02 07:38:14;;;;;;;2.33;1.77;;;16.80;60.60;;;;;;4957428;29;20031;-66
2020/12/02 07:40:48;;;;;;;2.78;1.65;;;16.80;60.60;;;;;;4957670;29;20377;-65
2020/12/02 07:43:28;;;;;;;2.97;1.67;;;17.00;60.50;;;;;;4957207;29;20059;-66
2020/12/02 07:45:57;;;;;;;4.28;1.65;;;17.10;60.20;;;;;;4956362;29;20019;-66
2020/12/02 07:48:25;;;;;;;3.30;1.20;;;17.20;59.90;;;;;;4957488;29;20015;-66
2020/12/02 07:51:07;;;;;;;3.33;1.73;;;17.50;59.70;;;;;;4956872;29;20051;-66
2020/12/02 07:53:48;;;;;;;2.13;1.50;;;17.50;59.90;;;;;;4956008;29;20055;-64
2020/12/02 07:56:32;;;;;;;4.30;1.58;;;17.60;59.00;;;;;;4955755;28;20501;-64
2020/12/02 07:59:29;;;;;;;2.22;1.63;;;17.60;59.40;;;;;;4956455;29;20067;-64
2020/12/02 08:02:00;;;;;;;5.03;2.20;;;17.50;59.50;;;;;;4948887;29;20453;-67
2020/12/02 08:04:37;;;;;;;3.80;1.85;;;17.60;59.50;;;;;;4956918;29;20047;-67
2020/12/02 08:07:11;;;;;;;4.45;2.15;;;17.40;59.70;;;;;;4939495;29;20020;-69
2020/12/02 08:09:43;;;;;;;5.15;2.65;;;17.40;60.00;;;;;;4956658;29;20031;-67
2020/12/02 08:12:29;;;;;;;6.32;2.20;;;17.40;60.30;;;;;;4956728;29;20023;-67
2020/12/02 08:15:13;;;;;;;4.13;2.42;;;17.30;60.60;;;;;;4956704;29;20027;-67
2020/12/02 08:17:40;;;;;;;3.20;2.38;;;17.30;60.80;;;;;;4956409;28;20034;-67
2020/12/02 08:20:30;;;;;;;7.88;2.65;;;17.20;61.10;;;;;;4955384;29;20219;-67
2020/12/02 08:22:59;;;;;;;4.50;1.90;;;17.20;61.30;;;;;;4955347;29;20039;-67
2020/12/02 08:25:32;;;;;;;9.35;3.00;;;17.20;61.70;;;;;;4955349;29;20260;-67
2020/12/02 08:28:00;;;;;;;5.50;2.80;;;17.20;61.90;;;;;;4954754;29;20023;-67
2020/12/02 08:30:29;;;;;;;6.03;3.13;;;17.20;62.40;;;;;;4954924;29;20074;-67
2020/12/02 08:32:59;;;;;;;5.18;2.97;;;17.10;61.90;;;;;;4954829;29;20027;-67
2020/12/02 08:35:30;;;;;;;;;;;17.10;61.80;;;;;;4955016;28;20034;-67
2020/12/02 08:37:58;;;;;;;5.05;2.97;;;17.10;62.60;;;;;;4954960;28;20238;-68
2020/12/02 08:40:29;;;;;;;14.23;3.40;;;17.10;62.70;;;;;;4955491;29;20043;-67
2020/12/02 08:43:15;;;;;;;7.68;3.10;;;17.00;62.40;;;;;;4956023;29;20054;-67
2020/12/02 08:46:00;;;;;;;7.47;3.55;;;17.00;63.00;;;;;;4956412;29;20047;-67
2020/12/02 08:48:26;;;;;;;7.40;4.85;;;17.00;63.10;;;;;;4956369;29;20590;-67
2020/12/02 08:50:51;;;;;;;6.05;4.13;;;17.00;63.20;;;;;;4955823;29;20030;-68
2020/12/02 08:53:24;;;;;;;8.55;4.57;;;16.90;63.20;;;;;;4956208;29;20086;-67
2020/12/02 08:55:49;;;;;;;7.05;3.50;;;16.90;63.30;;;;;;4956131;28;20501;-67
2020/12/02 08:58:15;;;;;;;6.00;3.78;;;16.80;63.20;;;;;;4956131;29;20162;-67
2020/12/02 09:00:40;;;;;;;6.88;3.92;;;16.80;63.20;;;;;;4956028;29;20019;-67
2020/12/02 09:03:06;;;;;;;8.00;4.18;;;16.80;63.10;;;;;;4955908;29;20036;-67
2020/12/02 09:05:32;;;;;;;8.60;4.05;;;16.80;63.10;;;;;;4956010;29;20102;-66
2020/12/02 09:07:57;;;;;;;7.10;4.30;;;16.70;62.90;;;;;;4955939;29;20428;-66
2020/12/02 09:10:23;;;;;;;7.55;4.43;;;16.70;62.90;;;;;;4955866;29;20030;-67
2020/12/02 09:12:49;;;;;;;7.80;4.55;;;16.70;62.60;;;;;;4943964;29;20042;-67
2020/12/02 09:15:14;;;;;;;5.13;3.55;;;16.70;62.80;;;;;;4935747;29;20114;-65
2020/12/02 09:17:40;;;;;;;5.25;3.88;;;16.70;62.80;;;;;;4935578;29;20031;-65
2020/12/02 09:20:06;;;;;;;6.38;3.88;;;16.60;62.40;;;;;;4935567;29;20023;-65
2020/12/02 09:22:33;;;;;;;8.45;4.25;;;16.70;62.50;;;;;;4935445;29;20414;-65
2020/12/02 09:24:59;;;;;;;4.05;2.97;;;16.70;62.40;;;;;;4935409;29;20386;-64
2020/12/02 09:27:25;;;;;;;9.45;3.90;;;16.70;62.30;;;;;;4935191;29;20103;-65
2020/12/02 09:29:50;;;;;;;4.32;3.38;;;16.70;62.20;;;;;;4935005;29;20470;-65
2020/12/02 09:32:16;;;;;;;5.05;3.72;;;16.80;62.10;;;;;;4936394;29;20426;-65
2020/12/02 09:34:41;;;;;;;5.60;3.67;;;16.90;62.60;;;;;;4936345;29;20389;-65
2020/12/02 09:37:13;;;;;;;4.60;3.30;;;16.90;61.80;;;;;;4936366;29;20016;-66
2020/12/02 09:39:40;;;;;;;5.45;3.60;;;16.90;61.80;;;;;;4936182;29;20028;-71
2020/12/02 09:42:05;;;;;;;6.00;3.88;;;17.00;61.70;;;;;;4936216;29;20021;-72
2020/12/02 09:44:35;;;;;;;3.15;2.85;;;17.00;61.50;;;;;;4935815;29;20375;-67
2020/12/02 09:47:16;;;;;;;9.13;3.50;;;17.00;61.40;;;;;;4935130;29;20059;-66
2020/12/02 09:49:45;;;;;;;5.47;3.45;;;17.10;61.20;;;;;;4935847;29;20058;-66
2020/12/02 09:52:24;;;;;;;4.88;3.60;;;17.20;61.60;;;;;;4934259;29;20031;-66
2020/12/02 09:54:50;;;;;;;6.28;3.63;;;17.20;60.70;;;;;;4934589;28;20054;-67
2020/12/02 09:57:25;;;;;;;6.97;4.10;;;17.20;60.60;;;;;;4935190;29;20506;-66
2020/12/02 09:59:56;;;;;;;6.78;4.03;;;17.20;60.60;;;;;;4947921;29;20540;-66
2020/12/02 10:02:21;;;;;;;7.63;3.78;;;17.20;60.40;;;;;;4954320;29;20026;-67
2020/12/02 10:05:26;;;;;;;7.20;3.85;;;17.30;60.40;;;;;;4948032;29;20394;-68
2020/12/02 10:08:23;;;;;;;7.40;4.13;;;17.20;60.20;;;;;;4921378;29;20044;-66
2020/12/02 10:11:03;;;;;;;5.82;4.18;;;17.20;60.20;;;;;;4934541;29;20087;-66
2020/12/02 10:13:35;;;;;;;5.43;3.67;;;17.20;60.20;;;;;;4935152;29;20497;-66
2020/12/02 10:16:25;;;;;;;5.97;3.72;;;17.20;60.30;;;;;;4935045;29;20028;-66
2020/12/02 10:19:10;;;;;;;6.22;4.50;;;17.10;60.40;;;;;;4935164;29;20083;-66
2020/12/02 10:21:41;;;;;;;5.65;4.35;;;17.00;60.50;;;;;;4934912;29;20032;-67
2020/12/02 10:24:30;;;;;;;6.82;4.50;;;17.00;60.50;;;;;;4935347;29;20094;-65
2020/12/02 10:27:25;;;;;;;6.40;5.03;;;17.00;60.60;;;;;;4935670;29;20031;-66
2020/12/02 10:30:12;;;;;;;6.00;4.78;;;17.00;60.60;;;;;;4935331;29;20032;-66
2020/12/02 10:32:40;;;;;;;6.68;5.18;;;16.90;60.60;;;;;;4935545;29;20031;-66
2020/12/02 10:35:07;;;;;;;7.72;5.45;;;16.90;60.50;;;;;;4935545;29;20027;-66
2020/12/02 10:37:37;;;;;;;8.43;5.07;;;16.90;60.60;;;;;;4935494;29;20028;-67
2020/12/02 10:40:05;;;;;;;;;;;16.90;60.40;;;;;;4937076;29;20071;-66
2020/12/02 10:43:00;;;;;;;7.05;5.20;;;16.80;60.50;;;;;;4939410;29;19910;-66
2020/12/02 10:45:25;;;;;;;8.35;5.72;;;16.80;60.40;;;;;;4939092;29;20063;-66
2020/12/02 10:48:16;;;;;;;7.38;5.50;;;16.80;60.40;;;;;;4941391;29;20055;-64
2020/12/02 10:50:43;;;;;;;7.32;5.05;;;16.80;60.30;;;;;;4938702;29;20032;-66
2020/12/02 10:53:19;;;;;;;5.85;5.13;;;16.80;60.30;;;;;;4937562;29;20116;-66
2020/12/02 10:55:45;;;;;;;7.65;5.40;;;16.80;60.30;;;;;;4939202;28;20052;-68
2020/12/02 10:58:25;;;;;;;8.05;5.15;;;16.80;60.20;;;;;;4938864;29;20027;-66
2020/12/02 11:00:53;;;;;;;;;;;16.80;60.20;;;;;;4939046;29;20087;-66
2020/12/02 11:03:24;;;;;;;7.80;5.07;;;16.70;60.20;;;;;;4938957;29;19954;-66
2020/12/02 11:06:09;;;;;;;6.97;5.80;;;16.80;60.20;;;;;;4938987;29;20378;-67
2020/12/02 11:09:04;;;;;;;5.80;4.78;;;16.80;60.20;;;;;;4938954;29;20058;-66
2020/12/02 11:11:45;;;;;;;8.30;4.95;;;16.70;60.10;;;;;;4938989;29;20083;-67
2020/12/02 11:14:32;;;;;;;7.60;5.38;;;16.80;60.00;;;;;;4938848;29;20031;-68
2020/12/02 11:17:25;;;;;;;7.97;5.38;;;16.80;59.90;;;;;;4938455;29;20466;-68
2020/12/02 11:20:12;;;;;;;6.05;4.80;;;16.90;59.90;;;;;;4938778;29;20027;-68
2020/12/02 11:23:00;;;;;;;6.13;4.90;;;16.90;59.70;;;;;;4938724;29;20032;-68
2020/12/02 11:25:46;;;;;;;5.60;4.70;;;17.00;59.70;;;;;;4938546;29;20043;-68
2020/12/02 11:28:15;;;;;;;5.18;4.18;;;17.00;59.60;;;;;;4938920;29;20027;-68
2020/12/02 11:30:43;;;;;;;8.82;4.70;;;17.10;59.60;;;;;;4938521;29;20385;-68
2020/12/02 11:33:43;;;;;;;6.50;4.40;;;17.10;59.40;;;;;;4938444;29;20042;-68
2020/12/02 11:36:33;;;;;;;5.53;4.13;;;17.20;59.40;;;;;;4938257;29;20107;-68
2020/12/02 11:39:25;;;;;;;5.28;4.53;;;17.20;59.40;;;;;;4938418;29;20028;-68
2020/12/02 11:42:05;;;;;;;6.28;4.60;;;17.30;59.40;;;;;;4938016;29;20028;-66
2020/12/02 11:44:41;;;;;;;5.22;4.25;;;17.30;59.30;;;;;;4938169;29;20044;-71
2020/12/02 11:47:16;;;;;;;6.07;4.43;;;17.30;59.40;;;;;;4938214;29;20026;-68
2020/12/02 11:49:51;;;;;;;6.47;4.25;;;17.30;59.40;;;;;;4937874;29;20031;-69
2020/12/02 11:52:49;;;;;;;5.88;4.63;;;17.30;59.30;;;;;;4951523;28;20023;-68
2020/12/02 11:55:18;;;;;;;6.63;4.80;;;17.70;59.60;;;;;;4937698;28;20040;-67
2020/12/02 11:57:53;;;;;;;5.70;4.57;;;17.30;59.30;;;;;;4938142;29;20028;-68
2020/12/02 12:00:19;;;;;;;6.78;4.70;;;17.20;59.30;;;;;;4937975;29;20022;-67
2020/12/02 12:02:56;;;;;;;8.52;4.80;;;17.20;59.40;;;;;;4937972;29;20437;-66
2020/12/02 12:05:25;;;;;;;6.47;4.65;;;17.20;59.50;;;;;;4937892;29;20086;-67
2020/12/02 12:08:04;;;;;;;6.22;4.68;;;17.30;60.00;;;;;;4937899;29;20022;-68
2020/12/02 12:10:46;;;;;;;9.60;5.45;;;17.30;61.70;;;;;;4937786;29;20035;-68
2020/12/02 12:13:32;;;;;;;6.50;5.47;;;17.20;62.70;;;;;;4937811;29;20055;-67
2020/12/02 12:16:04;;;;;;;7.28;5.13;;;17.20;63.40;;;;;;4937394;29;20036;-67
2020/12/02 12:18:38;;;;;;;7.90;6.28;;;17.10;63.90;;;;;;4937646;29;20042;-67
2020/12/02 12:21:29;;;;;;;5.93;5.07;;;17.10;64.20;;;;;;4937548;29;20118;-67
2020/12/02 12:24:03;;;;;;;8.10;4.85;;;17.00;64.60;;;;;;4951304;29;20386;-67
2020/12/02 12:26:34;;;;;;;7.47;5.57;;;17.00;64.90;;;;;;4937388;29;20099;-67
2020/12/02 12:29:01;;;;;;;6.80;5.40;;;17.00;65.20;;;;;;4937569;29;20422;-68
2020/12/02 12:31:35;;;;;;;5.80;5.20;;;16.90;65.20;;;;;;4937492;29;20082;-67
2020/12/02 12:34:28;;;;;;;7.53;5.05;;;16.90;65.70;;;;;;4937810;29;20027;-66
2020/12/02 12:37:00;;;;;;;5.55;5.05;;;16.90;65.60;;;;;;4937467;29;20031;-67
2020/12/02 12:39:34;;;;;;;5.90;5.13;;;16.90;65.70;;;;;;4937393;29;20027;-67
2020/12/02 12:42:00;;;;;;;5.82;4.95;;;16.90;66.50;;;;;;4937490;29;20032;-67
2020/12/02 12:44:33;;;;;;;5.68;4.80;;;16.90;66.00;;;;;;4937304;29;20398;-67
2020/12/02 12:47:01;;;;;;;6.75;5.35;;;16.90;66.00;;;;;;4937271;29;20023;-67
2020/12/02 12:49:29;;;;;;;7.72;5.18;;;16.90;66.00;;;;;;4937015;29;20114;-68
2020/12/02 12:51:59;;;;;;;5.65;5.07;;;16.90;66.00;;;;;;4936908;29;20071;-69
2020/12/02 12:54:25;;;;;;;6.38;5.05;;;16.90;66.10;;;;;;4937528;28;20119;-68
2020/12/02 12:56:53;;;;;;;5.47;4.70;;;17.00;66.30;;;;;;4936180;29;20075;-68
2020/12/02 12:59:20;;;;;;;6.30;4.53;;;16.90;66.50;;;;;;4936544;29;20038;-68
2020/12/02 13:01:49;;;;;;;5.53;4.85;;;16.90;66.60;;;;;;4918390;29;20028;-68
2020/12/02 13:04:18;;;;;;;6.90;4.55;;;16.90;66.80;;;;;;4934473;29;20024;-68
2020/12/02 13:07:04;;;;;;;5.75;4.57;;;16.90;66.90;;;;;;4935637;29;20031;-68
2020/12/02 13:10:08;;;;;;;4.35;3.95;;;16.80;66.80;;;;;;4935404;29;20036;-68
2020/12/02 13:12:52;;;;;;;4.70;4.30;;;16.90;66.80;;;;;;4914344;29;20044;-68
2020/12/02 13:15:55;;;;;;;5.40;4.50;;;16.80;66.70;;;;;;4936240;29;20471;-68
2020/12/02 13:18:24;;;;;;;5.15;4.60;;;16.80;66.70;;;;;;4936749;29;20394;-68